sensor_id;sensor_type;location;lat;lon;timestamp;pressure;altitude;pressure_sealevel;temperature;humidity
10093;BME280;5085;48.092;11.484;2022-07-04T00:02:05;95326.91;;;20.19;100.00
10093;BME280;5085;48.092;11.484;2022-07-04T00:04:30;95321.09;;;20.20;100.00
10093;BME280;5085;48.092;11.484;2022-07-04T00:06:55;95324.78;;;20.25;100.00
10093;BME280;5085;48.092;11.484;2022-07-04T00:09:21;95321.38;;;20.28;100.00
10093;BME280;5085;48.092;11.484;2022-07-04T00:11:46;95330.19;;;20.33;97.77
10093;BME280;5085;48.092;11.484;2022-07-04T00:14:11;95326.25;;;20.43;95.75
10093;BME280;5085;48.092;11.484;2022-07-04T00:16:37;95319.16;;;20.51;95.61
10093;BME280;5085;48.092;11.484;2022-07-04T00:19:02;95326.06;;;20.57;96.21
10093;BME280;5085;48.092;11.484;2022-07-04T00:21:28;95328.44;;;20.58;96.80
10093;BME280;5085;48.092;11.484;2022-07-04T00:23:53;95330.19;;;20.63;96.88
10093;BME280;5085;48.092;11.484;2022-07-04T00:26:18;95337.72;;;20.66;95.86
10093;BME280;5085;48.092;11.484;2022-07-04T00:28:44;95332.84;;;20.71;95.59
10093;BME280;5085;48.092;11.484;2022-07-04T00:31:09;95319.63;;;20.74;95.61
10093;BME280;5085;48.092;11.484;2022-07-04T00:33:35;95315.75;;;20.75;94.41
10093;BME280;5085;48.092;11.484;2022-07-04T00:36:00;95311.22;;;20.79;93.59
10093;BME280;5085;48.092;11.484;2022-07-04T00:38:26;95307.69;;;20.78;93.46
10093;BME280;5085;48.092;11.484;2022-07-04T00:40:51;95300.06;;;20.84;92.97
10093;BME280;5085;48.092;11.484;2022-07-04T00:43:27;95296.53;;;20.83;92.76
10093;BME280;5085;48.092;11.484;2022-07-04T00:45:52;95298.13;;;20.84;92.54
10093;BME280;5085;48.092;11.484;2022-07-04T00:48:18;95307.13;;;20.85;91.63
10093;BME280;5085;48.092;11.484;2022-07-04T00:50:45;95310.66;;;20.85;91.62
10093;BME280;5085;48.092;11.484;2022-07-04T00:53:12;95310.66;;;20.85;90.70
10093;BME280;5085;48.092;11.484;2022-07-04T00:55:39;95339.66;;;20.86;90.88
10093;BME280;5085;48.092;11.484;2022-07-04T00:58:05;95329.50;;;20.87;92.22
10093;BME280;5085;48.092;11.484;2022-07-04T01:00:31;95354.47;;;20.85;92.19
10093;BME280;5085;48.092;11.484;2022-07-04T01:02:56;95340.31;;;20.83;92.43
10093;BME280;5085;48.092;11.484;2022-07-04T01:05:22;95334.84;;;20.83;93.49
10093;BME280;5085;48.092;11.484;2022-07-04T01:07:47;95341.34;;;20.79;91.59
10093;BME280;5085;48.092;11.484;2022-07-04T01:10:12;95344.22;;;20.82;91.11
10093;BME280;5085;48.092;11.484;2022-07-04T01:12:38;95336.00;;;20.82;90.83
10093;BME280;5085;48.092;11.484;2022-07-04T01:15:05;95326.97;;;20.82;89.99
10093;BME280;5085;48.092;11.484;2022-07-04T01:17:31;95328.09;;;20.81;90.30
10093;BME280;5085;48.092;11.484;2022-07-04T01:19:56;95322.97;;;20.79;91.81
10093;BME280;5085;48.092;11.484;2022-07-04T01:22:22;95315.91;;;20.78;90.37
10093;BME280;5085;48.092;11.484;2022-07-04T01:24:48;95322.03;;;20.75;90.21
10093;BME280;5085;48.092;11.484;2022-07-04T01:27:14;95325.91;;;20.74;90.22
10093;BME280;5085;48.092;11.484;2022-07-04T01:29:40;95324.56;;;20.80;89.63
10093;BME280;5085;48.092;11.484;2022-07-04T01:32:07;95326.63;;;20.83;89.53
10093;BME280;5085;48.092;11.484;2022-07-04T01:34:33;95324.34;;;20.85;90.07
10093;BME280;5085;48.092;11.484;2022-07-04T01:37:00;95322.88;;;20.88;90.41
10093;BME280;5085;48.092;11.484;2022-07-04T01:39:28;95322.81;;;20.96;89.89
10093;BME280;5085;48.092;11.484;2022-07-04T01:41:54;95307.44;;;21.04;88.90
10093;BME280;5085;48.092;11.484;2022-07-04T01:44:20;95306.88;;;21.11;88.42
10093;BME280;5085;48.092;11.484;2022-07-04T01:46:46;95292.06;;;21.12;88.05
10093;BME280;5085;48.092;11.484;2022-07-04T01:49:11;95287.38;;;21.12;88.02
10093;BME280;5085;48.092;11.484;2022-07-04T01:51:44;95288.63;;;21.15;86.57
10093;BME280;5085;48.092;11.484;2022-07-04T01:54:09;95276.56;;;21.16;86.55
10093;BME280;5085;48.092;11.484;2022-07-04T01:56:35;95267.06;;;21.13;86.39
10093;BME280;5085;48.092;11.484;2022-07-04T01:59:00;95260.78;;;21.13;87.03
10093;BME280;5085;48.092;11.484;2022-07-04T02:01:26;95259.53;;;21.10;87.58
10093;BME280;5085;48.092;11.484;2022-07-04T02:03:59;95248.56;;;21.10;87.91
10093;BME280;5085;48.092;11.484;2022-07-04T02:06:25;95253.59;;;21.08;88.58
10093;BME280;5085;48.092;11.484;2022-07-04T02:08:51;95258.28;;;21.08;88.88
10093;BME280;5085;48.092;11.484;2022-07-04T02:11:35;95262.47;;;21.05;89.19
10093;BME280;5085;48.092;11.484;2022-07-04T02:14:19;95256.06;;;21.01;89.38
10093;BME280;5085;48.092;11.484;2022-07-04T02:16:44;95268.03;;;20.96;90.43
10093;BME280;5085;48.092;11.484;2022-07-04T02:19:10;95262.56;;;20.96;90.02
10093;BME280;5085;48.092;11.484;2022-07-04T02:21:36;95270.66;;;20.93;90.35
10093;BME280;5085;48.092;11.484;2022-07-04T02:24:01;95279.88;;;20.88;90.97
10093;BME280;5085;48.092;11.484;2022-07-04T02:26:26;95277.69;;;20.82;91.65
10093;BME280;5085;48.092;11.484;2022-07-04T02:28:52;95272.41;;;20.77;91.50
10093;BME280;5085;48.092;11.484;2022-07-04T02:31:17;95269.56;;;20.73;91.88
10093;BME280;5085;48.092;11.484;2022-07-04T02:33:43;95262.34;;;20.68;92.83
10093;BME280;5085;48.092;11.484;2022-07-04T02:36:08;95258.22;;;20.62;93.44
10093;BME280;5085;48.092;11.484;2022-07-04T02:38:34;95285.00;;;20.57;93.42
10093;BME280;5085;48.092;11.484;2022-07-04T02:40:59;95275.84;;;20.53;94.11
10093;BME280;5085;48.092;11.484;2022-07-04T02:43:24;95274.13;;;20.48;94.73
10093;BME280;5085;48.092;11.484;2022-07-04T02:45:50;95275.75;;;20.40;95.04
10093;BME280;5085;48.092;11.484;2022-07-04T02:48:15;95279.34;;;20.32;96.02
10093;BME280;5085;48.092;11.484;2022-07-04T02:50:40;95287.28;;;20.25;97.14
10093;BME280;5085;48.092;11.484;2022-07-04T02:53:06;95296.34;;;20.17;98.17
10093;BME280;5085;48.092;11.484;2022-07-04T02:55:31;95303.50;;;20.09;99.79
10093;BME280;5085;48.092;11.484;2022-07-04T02:57:56;95314.44;;;20.01;100.00
10093;BME280;5085;48.092;11.484;2022-07-04T03:00:22;95309.03;;;19.92;100.00
10093;BME280;5085;48.092;11.484;2022-07-04T03:02:47;95302.19;;;19.77;100.00
10093;BME280;5085;48.092;11.484;2022-07-04T03:05:13;95303.69;;;19.66;100.00
10093;BME280;5085;48.092;11.484;2022-07-04T03:07:38;95304.38;;;19.54;100.00
10093;BME280;5085;48.092;11.484;2022-07-04T03:10:04;95297.97;;;19.41;100.00
10093;BME280;5085;48.092;11.484;2022-07-04T03:12:29;95309.75;;;19.33;100.00
10093;BME280;5085;48.092;11.484;2022-07-04T03:14:55;95305.56;;;19.27;100.00
10093;BME280;5085;48.092;11.484;2022-07-04T03:17:20;95298.69;;;19.21;100.00
10093;BME280;5085;48.092;11.484;2022-07-04T03:19:46;95290.34;;;19.17;100.00
10093;BME280;5085;48.092;11.484;2022-07-04T03:22:11;95295.47;;;19.10;100.00
10093;BME280;5085;48.092;11.484;2022-07-04T03:24:37;95301.59;;;18.98;100.00
10093;BME280;5085;48.092;11.484;2022-07-04T03:27:02;95309.50;;;18.91;100.00
10093;BME280;5085;48.092;11.484;2022-07-04T03:29:28;95322.03;;;18.84;100.00
10093;BME280;5085;48.092;11.484;2022-07-04T03:31:53;95329.09;;;18.76;100.00
10093;BME280;5085;48.092;11.484;2022-07-04T03:34:19;95334.06;;;18.74;100.00
10093;BME280;5085;48.092;11.484;2022-07-04T03:36:44;95326.97;;;18.73;100.00
10093;BME280;5085;48.092;11.484;2022-07-04T03:39:09;95332.94;;;18.75;100.00
10093;BME280;5085;48.092;11.484;2022-07-04T03:41:35;95325.22;;;18.77;100.00
10093;BME280;5085;48.092;11.484;2022-07-04T03:44:02;95326.69;;;18.83;100.00
10093;BME280;5085;48.092;11.484;2022-07-04T03:46:27;95330.19;;;18.92;100.00
10093;BME280;5085;48.092;11.484;2022-07-04T03:48:52;95334.84;;;19.01;100.00
10093;BME280;5085;48.092;11.484;2022-07-04T03:51:18;95328.41;;;19.05;100.00
10093;BME280;5085;48.092;11.484;2022-07-04T03:53:44;95339.50;;;19.09;100.00
10093;BME280;5085;48.092;11.484;2022-07-04T03:56:09;95345.13;;;19.12;100.00
10093;BME280;5085;48.092;11.484;2022-07-04T03:58:35;95359.22;;;19.14;100.00
10093;BME280;5085;48.092;11.484;2022-07-04T04:01:01;95361.31;;;19.17;100.00
10093;BME280;5085;48.092;11.484;2022-07-04T04:03:26;95365.34;;;19.20;100.00
10093;BME280;5085;48.092;11.484;2022-07-04T04:06:10;95378.34;;;19.23;100.00
10093;BME280;5085;48.092;11.484;2022-07-04T04:08:35;95383.50;;;19.25;100.00
10093;BME280;5085;48.092;11.484;2022-07-04T04:11:01;95382.81;;;19.28;100.00
10093;BME280;5085;48.092;11.484;2022-07-04T04:13:26;95388.94;;;19.33;100.00
10093;BME280;5085;48.092;11.484;2022-07-04T04:15:51;95403.22;;;19.39;100.00
10093;BME280;5085;48.092;11.484;2022-07-04T04:18:17;95392.91;;;19.44;100.00
10093;BME280;5085;48.092;11.484;2022-07-04T04:20:42;95401.91;;;19.54;100.00
10093;BME280;5085;48.092;11.484;2022-07-04T04:23:08;95399.66;;;19.64;100.00
10093;BME280;5085;48.092;11.484;2022-07-04T04:25:33;95389.84;;;19.72;100.00
10093;BME280;5085;48.092;11.484;2022-07-04T04:27:59;95394.31;;;19.77;100.00
10093;BME280;5085;48.092;11.484;2022-07-04T04:30:24;95391.41;;;19.82;100.00
10093;BME280;5085;48.092;11.484;2022-07-04T04:32:49;95396.22;;;19.85;100.00
10093;BME280;5085;48.092;11.484;2022-07-04T04:35:15;95400.88;;;19.93;100.00
10093;BME280;5085;48.092;11.484;2022-07-04T04:37:40;95398.38;;;20.09;100.00
10093;BME280;5085;48.092;11.484;2022-07-04T04:40:06;95406.69;;;20.21;100.00
10093;BME280;5085;48.092;11.484;2022-07-04T04:42:32;95389.72;;;20.36;100.00
10093;BME280;5085;48.092;11.484;2022-07-04T04:44:58;95401.25;;;20.51;100.00
10093;BME280;5085;48.092;11.484;2022-07-04T04:47:23;95411.13;;;20.64;100.00
10093;BME280;5085;48.092;11.484;2022-07-04T04:49:49;95416.75;;;20.67;100.00
10093;BME280;5085;48.092;11.484;2022-07-04T04:52:14;95413.66;;;20.78;100.00
10093;BME280;5085;48.092;11.484;2022-07-04T04:54:39;95416.78;;;20.88;100.00
10093;BME280;5085;48.092;11.484;2022-07-04T04:57:05;95420.72;;;21.00;100.00
10093;BME280;5085;48.092;11.484;2022-07-04T04:59:32;95423.53;;;21.12;100.00
10093;BME280;5085;48.092;11.484;2022-07-04T05:01:58;95443.03;;;21.31;100.00
10093;BME280;5085;48.092;11.484;2022-07-04T05:04:23;95454.56;;;21.45;100.00
10093;BME280;5085;48.092;11.484;2022-07-04T05:06:48;95464.75;;;21.57;100.00
10093;BME280;5085;48.092;11.484;2022-07-04T05:09:14;95474.31;;;21.51;100.00
10093;BME280;5085;48.092;11.484;2022-07-04T05:11:39;95469.72;;;21.43;100.00
10093;BME280;5085;48.092;11.484;2022-07-04T05:14:05;95471.56;;;21.30;100.00
10093;BME280;5085;48.092;11.484;2022-07-04T05:16:30;95473.22;;;21.22;100.00
10093;BME280;5085;48.092;11.484;2022-07-04T05:18:56;95478.78;;;21.14;100.00
10093;BME280;5085;48.092;11.484;2022-07-04T05:21:21;95487.06;;;21.05;100.00
10093;BME280;5085;48.092;11.484;2022-07-04T05:23:46;95487.09;;;20.96;100.00
10093;BME280;5085;48.092;11.484;2022-07-04T05:26:12;95490.50;;;20.93;100.00
10093;BME280;5085;48.092;11.484;2022-07-04T05:28:37;95492.44;;;20.93;100.00
10093;BME280;5085;48.092;11.484;2022-07-04T05:31:03;95473.63;;;20.91;100.00
10093;BME280;5085;48.092;11.484;2022-07-04T05:33:28;95472.28;;;20.97;100.00
10093;BME280;5085;48.092;11.484;2022-07-04T05:35:53;95475.31;;;21.05;100.00
10093;BME280;5085;48.092;11.484;2022-07-04T05:38:19;95472.97;;;21.15;100.00
10093;BME280;5085;48.092;11.484;2022-07-04T05:40:45;95478.06;;;21.26;100.00
10093;BME280;5085;48.092;11.484;2022-07-04T05:43:10;95484.94;;;21.32;100.00
10093;BME280;5085;48.092;11.484;2022-07-04T05:45:37;95490.91;;;21.34;100.00
10093;BME280;5085;48.092;11.484;2022-07-04T05:48:02;95499.94;;;21.34;100.00
10093;BME280;5085;48.092;11.484;2022-07-04T05:50:28;95499.44;;;21.32;100.00
10093;BME280;5085;48.092;11.484;2022-07-04T05:52:53;95506.03;;;21.31;100.00
10093;BME280;5085;48.092;11.484;2022-07-04T05:55:19;95500.28;;;21.33;100.00
10093;BME280;5085;48.092;11.484;2022-07-04T05:57:44;95498.78;;;21.35;100.00
10093;BME280;5085;48.092;11.484;2022-07-04T06:00:10;95498.25;;;21.42;100.00
10093;BME280;5085;48.092;11.484;2022-07-04T06:02:37;95502.19;;;21.53;100.00
10093;BME280;5085;48.092;11.484;2022-07-04T06:05:02;95500.50;;;21.61;100.00
10093;BME280;5085;48.092;11.484;2022-07-04T06:07:28;95505.47;;;21.67;100.00
10093;BME280;5085;48.092;11.484;2022-07-04T06:09:53;95498.50;;;21.70;100.00
10093;BME280;5085;48.092;11.484;2022-07-04T06:12:18;95501.94;;;21.67;100.00
10093;BME280;5085;48.092;11.484;2022-07-04T06:14:44;95500.00;;;21.67;100.00
10093;BME280;5085;48.092;11.484;2022-07-04T06:17:09;95510.03;;;21.63;100.00
10093;BME280;5085;48.092;11.484;2022-07-04T06:19:34;95507.34;;;21.55;100.00
10093;BME280;5085;48.092;11.484;2022-07-04T06:22:00;95502.00;;;21.37;100.00
10093;BME280;5085;48.092;11.484;2022-07-04T06:24:25;95512.06;;;21.25;100.00
10093;BME280;5085;48.092;11.484;2022-07-04T06:26:51;95514.19;;;21.19;100.00
10093;BME280;5085;48.092;11.484;2022-07-04T06:29:16;95517.13;;;21.14;100.00
10093;BME280;5085;48.092;11.484;2022-07-04T06:31:41;95510.69;;;21.10;100.00
10093;BME280;5085;48.092;11.484;2022-07-04T06:34:07;95513.19;;;21.03;100.00
10093;BME280;5085;48.092;11.484;2022-07-04T06:36:51;95505.78;;;21.03;100.00
10093;BME280;5085;48.092;11.484;2022-07-04T06:39:16;95500.75;;;21.05;100.00
10093;BME280;5085;48.092;11.484;2022-07-04T06:41:41;95512.50;;;21.06;100.00
10093;BME280;5085;48.092;11.484;2022-07-04T06:44:07;95504.78;;;21.08;100.00
10093;BME280;5085;48.092;11.484;2022-07-04T06:46:32;95518.72;;;21.15;100.00
10093;BME280;5085;48.092;11.484;2022-07-04T06:48:57;95509.03;;;21.17;100.00
10093;BME280;5085;48.092;11.484;2022-07-04T06:51:23;95515.91;;;21.23;100.00
10093;BME280;5085;48.092;11.484;2022-07-04T06:53:49;95514.00;;;21.24;100.00
10093;BME280;5085;48.092;11.484;2022-07-04T06:56:16;95514.31;;;21.22;100.00
10093;BME280;5085;48.092;11.484;2022-07-04T06:58:41;95514.66;;;21.21;100.00
10093;BME280;5085;48.092;11.484;2022-07-04T07:01:07;95519.00;;;21.22;100.00
10093;BME280;5085;48.092;11.484;2022-07-04T07:03:32;95512.38;;;21.23;100.00
10093;BME280;5085;48.092;11.484;2022-07-04T07:05:58;95525.56;;;21.30;100.00
10093;BME280;5085;48.092;11.484;2022-07-04T07:08:23;95524.63;;;21.26;100.00
10093;BME280;5085;48.092;11.484;2022-07-04T07:10:49;95520.16;;;21.21;100.00
10093;BME280;5085;48.092;11.484;2022-07-04T07:13:14;95527.00;;;21.06;100.00
10093;BME280;5085;48.092;11.484;2022-07-04T07:15:40;95535.47;;;20.92;100.00
10093;BME280;5085;48.092;11.484;2022-07-04T07:18:06;95536.66;;;20.83;100.00
10093;BME280;5085;48.092;11.484;2022-07-04T07:20:32;95550.00;;;20.84;100.00
10093;BME280;5085;48.092;11.484;2022-07-04T07:22:57;95546.66;;;20.79;100.00
10093;BME280;5085;48.092;11.484;2022-07-04T07:25:23;95553.41;;;20.72;100.00
10093;BME280;5085;48.092;11.484;2022-07-04T07:27:48;95524.97;;;20.65;100.00
10093;BME280;5085;48.092;11.484;2022-07-04T07:30:14;95547.72;;;20.57;100.00
10093;BME280;5085;48.092;11.484;2022-07-04T07:32:39;95558.16;;;20.55;100.00
10093;BME280;5085;48.092;11.484;2022-07-04T07:35:05;95547.72;;;20.57;100.00
10093;BME280;5085;48.092;11.484;2022-07-04T07:37:30;95539.31;;;20.62;100.00
10093;BME280;5085;48.092;11.484;2022-07-04T07:39:56;95526.72;;;20.69;100.00
10093;BME280;5085;48.092;11.484;2022-07-04T07:42:23;95521.97;;;20.87;100.00
10093;BME280;5085;48.092;11.484;2022-07-04T07:44:48;95514.25;;;21.10;100.00
10093;BME280;5085;48.092;11.484;2022-07-04T07:47:14;95511.16;;;21.41;100.00
10093;BME280;5085;48.092;11.484;2022-07-04T07:49:41;95509.22;;;21.63;100.00
10093;BME280;5085;48.092;11.484;2022-07-04T07:52:06;95507.13;;;21.81;100.00
10093;BME280;5085;48.092;11.484;2022-07-04T07:56:57;95508.31;;;22.04;100.00
10093;BME280;5085;48.092;11.484;2022-07-04T07:59:22;95505.34;;;22.30;100.00
10093;BME280;5085;48.092;11.484;2022-07-04T08:01:48;95496.00;;;22.56;100.00
10093;BME280;5085;48.092;11.484;2022-07-04T08:04:13;95496.13;;;22.84;100.00
10093;BME280;5085;48.092;11.484;2022-07-04T08:06:57;95497.41;;;23.11;100.00
10093;BME280;5085;48.092;11.484;2022-07-04T08:09:23;95496.41;;;23.31;100.00
10093;BME280;5085;48.092;11.484;2022-07-04T08:11:48;95498.56;;;23.50;100.00
10093;BME280;5085;48.092;11.484;2022-07-04T08:14:14;95496.19;;;23.77;100.00
10093;BME280;5085;48.092;11.484;2022-07-04T08:16:39;95473.19;;;23.97;100.00
10093;BME280;5085;48.092;11.484;2022-07-04T08:19:06;95488.41;;;24.23;98.62
10093;BME280;5085;48.092;11.484;2022-07-04T08:21:31;95473.06;;;24.37;96.39
10093;BME280;5085;48.092;11.484;2022-07-04T08:23:56;95479.13;;;24.59;96.35
10093;BME280;5085;48.092;11.484;2022-07-04T08:26:22;95480.00;;;24.79;94.71
10093;BME280;5085;48.092;11.484;2022-07-04T08:28:47;95467.88;;;24.99;90.61
10093;BME280;5085;48.092;11.484;2022-07-04T08:31:13;95462.75;;;25.33;87.86
10093;BME280;5085;48.092;11.484;2022-07-04T08:33:38;95463.06;;;25.66;81.99
10093;BME280;5085;48.092;11.484;2022-07-04T08:36:04;95463.75;;;25.79;81.27
10093;BME280;5085;48.092;11.484;2022-07-04T08:38:30;95470.06;;;25.80;83.32
10093;BME280;5085;48.092;11.484;2022-07-04T08:40:57;95474.25;;;26.12;82.80
10093;BME280;5085;48.092;11.484;2022-07-04T08:43:24;95477.88;;;26.85;77.69
10093;BME280;5085;48.092;11.484;2022-07-04T08:45:53;95476.25;;;27.64;70.12
10093;BME280;5085;48.092;11.484;2022-07-04T08:48:24;95479.22;;;28.12;65.57
10093;BME280;5085;48.092;11.484;2022-07-04T08:50:56;95478.28;;;28.79;61.52
10093;BME280;5085;48.092;11.484;2022-07-04T08:53:28;95472.88;;;29.48;59.48
10093;BME280;5085;48.092;11.484;2022-07-04T08:55:55;95472.03;;;30.21;55.24
10093;BME280;5085;48.092;11.484;2022-07-04T08:58:40;95464.53;;;31.35;53.69
10093;BME280;5085;48.092;11.484;2022-07-04T09:01:09;95457.53;;;32.08;49.95
10093;BME280;5085;48.092;11.484;2022-07-04T09:03:41;95464.28;;;33.25;47.89
10093;BME280;5085;48.092;11.484;2022-07-04T09:06:08;95469.59;;;33.54;45.84
10093;BME280;5085;48.092;11.484;2022-07-04T09:08:34;95470.19;;;32.86;44.32
10093;BME280;5085;48.092;11.484;2022-07-04T09:10:59;95455.75;;;32.46;45.30
10093;BME280;5085;48.092;11.484;2022-07-04T09:13:25;95469.72;;;32.98;45.35
10093;BME280;5085;48.092;11.484;2022-07-04T09:15:51;95470.81;;;33.87;43.69
10093;BME280;5085;48.092;11.484;2022-07-04T09:18:24;95482.19;;;34.65;41.44
10093;BME280;5085;48.092;11.484;2022-07-04T09:20:52;95477.81;;;35.38;41.53
10093;BME280;5085;48.092;11.484;2022-07-04T09:23:26;95480.66;;;34.87;37.25
10093;BME280;5085;48.092;11.484;2022-07-04T09:26:12;95480.72;;;34.26;39.54
10093;BME280;5085;48.092;11.484;2022-07-04T09:28:39;95483.91;;;34.59;40.27
10093;BME280;5085;48.092;11.484;2022-07-04T09:31:24;95478.13;;;34.96;38.00
10093;BME280;5085;48.092;11.484;2022-07-04T09:33:54;95473.81;;;35.82;37.29
10093;BME280;5085;48.092;11.484;2022-07-04T09:36:31;95479.53;;;35.98;36.83
10093;BME280;5085;48.092;11.484;2022-07-04T09:39:11;95484.47;;;36.11;36.78
10093;BME280;5085;48.092;11.484;2022-07-04T09:42:34;95484.91;;;36.65;36.20
10093;BME280;5085;48.092;11.484;2022-07-04T09:45:10;95479.81;;;36.60;35.54
10093;BME280;5085;48.092;11.484;2022-07-04T09:47:44;95475.88;;;36.38;36.20
10093;BME280;5085;48.092;11.484;2022-07-04T09:50:19;95474.72;;;35.99;35.99
10093;BME280;5085;48.092;11.484;2022-07-04T09:52:46;95474.06;;;35.01;38.23
10093;BME280;5085;48.092;11.484;2022-07-04T09:55:12;95474.22;;;34.05;38.95
10093;BME280;5085;48.092;11.484;2022-07-04T09:57:37;95478.13;;;33.40;39.87
10093;BME280;5085;48.092;11.484;2022-07-04T10:00:40;95478.38;;;32.59;38.81
10093;BME280;5085;48.092;11.484;2022-07-04T10:03:29;95476.50;;;32.34;40.72
10093;BME280;5085;48.092;11.484;2022-07-04T10:06:04;95466.16;;;32.31;41.04
10093;BME280;5085;48.092;11.484;2022-07-04T10:08:29;95470.59;;;32.22;42.46
10093;BME280;5085;48.092;11.484;2022-07-04T10:10:59;95464.28;;;32.07;42.45
10093;BME280;5085;48.092;11.484;2022-07-04T10:13:25;95468.38;;;31.77;42.56
10093;BME280;5085;48.092;11.484;2022-07-04T10:15:51;95463.34;;;31.44;42.79
10093;BME280;5085;48.092;11.484;2022-07-04T10:18:22;95468.13;;;31.04;42.99
10093;BME280;5085;48.092;11.484;2022-07-04T10:20:48;95465.34;;;30.86;43.51
10093;BME280;5085;48.092;11.484;2022-07-04T10:23:15;95467.69;;;30.62;44.53
10093;BME280;5085;48.092;11.484;2022-07-04T10:25:40;95472.00;;;30.28;44.60
10093;BME280;5085;48.092;11.484;2022-07-04T10:28:07;95477.94;;;30.16;45.92
10093;BME280;5085;48.092;11.484;2022-07-04T10:30:35;95478.28;;;30.03;46.05
10093;BME280;5085;48.092;11.484;2022-07-04T10:33:03;95474.25;;;29.90;45.32
10093;BME280;5085;48.092;11.484;2022-07-04T10:38:15;95478.00;;;29.46;46.92
10093;BME280;5085;48.092;11.484;2022-07-04T10:40:42;95473.16;;;29.32;48.09
10093;BME280;5085;48.092;11.484;2022-07-04T10:46:22;95476.06;;;28.95;47.63
10093;BME280;5085;48.092;11.484;2022-07-04T10:51:46;95471.13;;;28.74;48.99
10093;BME280;5085;48.092;11.484;2022-07-04T10:54:13;95466.34;;;28.68;48.41
10093;BME280;5085;48.092;11.484;2022-07-04T10:56:40;95469.97;;;28.79;48.60
10093;BME280;5085;48.092;11.484;2022-07-04T10:59:32;95460.28;;;29.03;49.69
10093;BME280;5085;48.092;11.484;2022-07-04T11:04:59;95458.47;;;29.28;49.46
10093;BME280;5085;48.092;11.484;2022-07-04T11:18:11;95454.59;;;31.09;47.73
10093;BME280;5085;48.092;11.484;2022-07-04T11:20:42;95454.44;;;31.77;46.08
10093;BME280;5085;48.092;11.484;2022-07-04T11:23:13;95448.97;;;32.36;45.38
10093;BME280;5085;48.092;11.484;2022-07-04T11:25:42;95447.06;;;32.85;44.45
10093;BME280;5085;48.092;11.484;2022-07-04T11:28:37;95443.94;;;33.25;40.01
10093;BME280;5085;48.092;11.484;2022-07-04T11:31:04;95433.53;;;34.01;39.71
10093;BME280;5085;48.092;11.484;2022-07-04T11:33:32;95436.47;;;34.21;40.14
10093;BME280;5085;48.092;11.484;2022-07-04T11:38:58;95428.41;;;33.62;41.23
10093;BME280;5085;48.092;11.484;2022-07-04T11:41:33;95428.94;;;33.49;39.80
10093;BME280;5085;48.092;11.484;2022-07-04T11:44:19;95431.28;;;33.13;41.82
10093;BME280;5085;48.092;11.484;2022-07-04T11:47:14;95437.84;;;32.92;41.55
10093;BME280;5085;48.092;11.484;2022-07-04T11:52:09;95425.44;;;33.38;39.92
10093;BME280;5085;48.092;11.484;2022-07-04T11:54:35;95427.69;;;33.54;38.11
10093;BME280;5085;48.092;11.484;2022-07-04T12:00:03;95421.41;;;34.38;39.07
10093;BME280;5085;48.092;11.484;2022-07-04T12:02:30;95416.91;;;34.44;39.03
10093;BME280;5085;48.092;11.484;2022-07-04T12:04:56;95423.06;;;34.63;37.78
10093;BME280;5085;48.092;11.484;2022-07-04T12:07:25;95412.56;;;34.94;38.02
10093;BME280;5085;48.092;11.484;2022-07-04T12:09:51;95412.44;;;35.24;36.38
10093;BME280;5085;48.092;11.484;2022-07-04T12:12:18;95420.94;;;35.41;36.28
10093;BME280;5085;48.092;11.484;2022-07-04T12:17:38;95411.41;;;35.15;35.66
10093;BME280;5085;48.092;11.484;2022-07-04T12:20:14;95402.84;;;34.51;36.96
10093;BME280;5085;48.092;11.484;2022-07-04T12:22:50;95395.44;;;34.65;38.40
10093;BME280;5085;48.092;11.484;2022-07-04T12:25:27;95397.31;;;34.95;38.14
10093;BME280;5085;48.092;11.484;2022-07-04T12:28:04;95389.50;;;35.53;37.47
10093;BME280;5085;48.092;11.484;2022-07-04T12:30:32;95399.63;;;35.87;36.22
10093;BME280;5085;48.092;11.484;2022-07-04T12:33:02;95394.09;;;36.19;35.94
10093;BME280;5085;48.092;11.484;2022-07-04T12:35:45;95385.94;;;36.09;36.13
10093;BME280;5085;48.092;11.484;2022-07-04T12:46:04;95368.06;;;35.23;37.09
10093;BME280;5085;48.092;11.484;2022-07-04T12:48:30;95362.66;;;34.89;35.73
10093;BME280;5085;48.092;11.484;2022-07-04T12:51:12;95359.44;;;34.67;36.93
10093;BME280;5085;48.092;11.484;2022-07-04T12:53:38;95355.19;;;34.59;37.48
10093;BME280;5085;48.092;11.484;2022-07-04T12:56:05;95357.72;;;34.49;37.53
10093;BME280;5085;48.092;11.484;2022-07-04T12:58:30;95359.25;;;34.54;38.46
10093;BME280;5085;48.092;11.484;2022-07-04T13:00:56;95356.56;;;34.70;38.09
10093;BME280;5085;48.092;11.484;2022-07-04T13:03:22;95352.22;;;35.13;35.43
10093;BME280;5085;48.092;11.484;2022-07-04T13:05:48;95355.28;;;35.62;36.43
10093;BME280;5085;48.092;11.484;2022-07-04T13:08:14;95345.97;;;35.85;36.67
10093;BME280;5085;48.092;11.484;2022-07-04T13:10:39;95344.03;;;36.01;36.75
10093;BME280;5085;48.092;11.484;2022-07-04T13:13:05;95340.47;;;36.34;37.17
10093;BME280;5085;48.092;11.484;2022-07-04T13:15:30;95337.69;;;36.50;36.36
10093;BME280;5085;48.092;11.484;2022-07-04T13:17:56;95337.69;;;36.50;33.68
10093;BME280;5085;48.092;11.484;2022-07-04T13:20:21;95346.00;;;36.70;33.29
10093;BME280;5085;48.092;11.484;2022-07-04T13:22:47;95336.34;;;36.38;33.48
10093;BME280;5085;48.092;11.484;2022-07-04T13:25:12;95332.00;;;36.53;34.65
10093;BME280;5085;48.092;11.484;2022-07-04T13:27:37;95324.84;;;36.82;34.59
10093;BME280;5085;48.092;11.484;2022-07-04T13:30:03;95329.78;;;37.23;33.56
10093;BME280;5085;48.092;11.484;2022-07-04T13:32:29;95322.75;;;37.31;32.73
10093;BME280;5085;48.092;11.484;2022-07-04T13:34:54;95316.97;;;37.22;33.27
10093;BME280;5085;48.092;11.484;2022-07-04T13:37:20;95315.31;;;37.37;33.45
10093;BME280;5085;48.092;11.484;2022-07-04T13:39:45;95317.47;;;37.75;32.96
10093;BME280;5085;48.092;11.484;2022-07-04T13:42:11;95313.81;;;38.42;31.38